createdAt,value
2018-03-29T17:31:15.677Z,57.20
2018-03-29T17:35:05.516Z,56.70
2018-03-29T17:37:39.905Z,56.70
2018-03-29T17:40:14.522Z,56.90
2018-03-29T17:42:48.953Z,57.00
2018-03-29T17:45:26.340Z,56.70
2018-03-29T17:48:00.672Z,57.90
2018-03-29T17:50:34.982Z,57.20
2018-03-29T17:53:09.274Z,58.10
2018-03-29T17:55:43.622Z,59.70
2018-03-29T17:58:18.041Z,59.40
2018-03-29T18:00:52.361Z,58.40
2018-03-29T18:03:26.674Z,58.30
2018-03-29T18:06:01.823Z,58.00
2018-03-29T18:08:36.110Z,58.00
2018-03-29T18:11:10.554Z,58.20
2018-03-29T18:13:44.981Z,60.40
2018-03-29T18:16:20.893Z,60.00
2018-03-29T18:18:55.354Z,59.90
2018-03-29T18:21:29.771Z,61.90
2018-03-29T18:24:05.422Z,61.20
2018-03-29T18:26:39.940Z,60.20
2018-03-29T18:29:14.250Z,60.70
2018-03-29T18:31:48.598Z,61.90
2018-03-29T18:34:23.014Z,61.50
2018-03-29T18:36:57.768Z,62.00
2018-03-29T18:39:32.139Z,62.70
2018-03-29T18:42:06.545Z,63.80
2018-03-29T18:44:41.687Z,65.80
2018-03-29T18:47:16.937Z,66.60
2018-03-29T18:49:51.399Z,66.60
2018-03-29T18:52:26.710Z,66.50
2018-03-29T18:55:01.763Z,66.90
2018-03-29T18:57:36.276Z,66.90
2018-03-29T19:00:10.562Z,66.70
2018-03-29T19:02:44.924Z,68.30
2018-03-29T19:05:19.334Z,67.10
2018-03-29T19:07:53.849Z,68.10
2018-03-29T19:10:28.962Z,68.40
2018-03-29T19:13:03.518Z,68.30
2018-03-29T19:15:38.526Z,66.60
2018-03-29T19:18:13.046Z,66.60
2018-03-29T19:20:47.594Z,66.80
2018-03-29T19:23:21.989Z,68.60
2018-03-29T19:25:56.542Z,68.90
2018-03-29T19:28:30.967Z,70.80
2018-03-29T19:31:05.981Z,69.90
2018-03-29T19:33:40.262Z,69.80
2018-03-29T19:36:14.737Z,69.80
2018-03-29T19:38:49.270Z,70.40
2018-03-29T19:41:23.682Z,70.40
2018-03-29T19:43:58.108Z,70.70
2018-03-29T19:46:32.421Z,70.80
2018-03-29T19:49:06.733Z,70.90
2018-03-29T19:51:41.156Z,71.30
2018-03-29T19:54:15.560Z,71.40
2018-03-29T19:56:49.949Z,71.90
2018-03-29T19:59:24.420Z,72.10
2018-03-29T20:01:58.746Z,73.00
2018-03-29T20:04:33.205Z,72.70
2018-03-29T20:07:07.569Z,72.60
2018-03-29T20:09:41.905Z,72.50
2018-03-29T20:12:16.421Z,72.90
2018-03-29T20:14:50.723Z,73.20
2018-03-29T20:17:25.062Z,73.20
2018-03-29T20:19:59.526Z,73.10
2018-03-29T20:22:34.011Z,73.10
2018-03-29T20:25:08.422Z,73.40
2018-03-29T20:27:42.826Z,73.90
2018-03-29T20:30:17.248Z,73.80
2018-03-29T20:32:51.782Z,74.10
2018-03-29T20:35:26.127Z,74.70
2018-03-29T20:38:00.571Z,74.00
2018-03-29T20:40:35.139Z,74.10
2018-03-29T20:43:09.437Z,74.20
2018-03-29T20:45:43.742Z,74.70
2018-03-29T20:48:18.209Z,74.40
2018-03-29T20:50:52.626Z,75.10
2018-03-29T20:53:26.923Z,74.60
2018-03-29T20:56:01.487Z,74.00
2018-03-29T20:58:35.894Z,73.90
2018-03-29T21:01:10.314Z,74.20
2018-03-29T21:03:44.754Z,74.90
2018-03-29T21:06:19.358Z,74.80
2018-03-29T21:08:53.986Z,75.10
2018-03-29T21:11:28.310Z,74.80
2018-03-29T21:14:02.927Z,74.30
2018-03-29T21:16:37.450Z,74.20
2018-03-29T21:19:11.874Z,74.10
2018-03-29T21:21:46.397Z,73.70
2018-03-29T21:24:20.903Z,73.90
2018-03-29T21:26:55.342Z,73.90
2018-03-29T21:29:29.865Z,73.90
2018-03-29T21:32:04.329Z,74.00
2018-03-29T21:34:38.809Z,74.10
2018-03-29T21:37:13.211Z,73.80
2018-03-29T21:39:47.851Z,73.50
2018-03-29T21:42:22.347Z,73.50
2018-03-29T21:44:56.722Z,73.20
2018-03-29T21:47:31.327Z,73.50
2018-03-29T21:50:05.515Z,73.40
2018-03-29T21:52:39.958Z,73.50
2018-03-29T21:55:14.378Z,74.00
2018-03-29T21:57:48.695Z,74.70
2018-03-29T22:00:22.962Z,75.00
2018-03-29T22:02:57.246Z,75.10
2018-03-29T22:05:31.678Z,76.20
2018-03-29T22:08:06.162Z,75.90
2018-03-29T22:10:40.609Z,75.70
2018-03-29T22:13:15.121Z,74.90
2018-03-29T22:15:49.437Z,75.40
2018-03-29T22:18:23.766Z,76.00
2018-03-29T22:20:58.089Z,76.20
2018-03-29T22:23:32.617Z,75.80
2018-03-29T22:26:07.611Z,75.70
2018-03-29T22:28:42.890Z,74.40
2018-03-29T22:31:18.929Z,74.30
2018-03-29T22:33:53.385Z,74.30
2018-03-29T22:36:27.778Z,74.60
2018-03-29T22:39:02.166Z,74.50
2018-03-29T22:41:36.495Z,74.40
2018-03-29T22:44:11.853Z,75.10
2018-03-29T22:46:46.377Z,75.00
2018-03-29T22:49:20.901Z,74.80
2018-03-29T22:51:55.530Z,74.90
2018-03-29T22:54:29.845Z,75.80
2018-03-29T22:57:04.957Z,76.60
2018-03-29T22:59:39.385Z,76.60
2018-03-29T23:02:13.691Z,76.40
2018-03-29T23:04:48.010Z,77.30
2018-03-29T23:07:22.545Z,78.00
2018-03-29T23:09:57.685Z,77.70
2018-03-29T23:12:32.117Z,77.60
2018-03-29T23:15:06.746Z,77.80
2018-03-29T23:17:41.162Z,78.50
2018-03-29T23:20:15.590Z,79.00
2018-03-29T23:22:49.901Z,79.00
2018-03-29T23:25:24.168Z,79.30
2018-03-29T23:27:58.862Z,79.10
2018-03-29T23:30:33.238Z,79.10
2018-03-29T23:33:07.614Z,78.70
2018-03-29T23:35:42.942Z,79.40
2018-03-29T23:38:17.314Z,79.10
2018-03-29T23:40:51.668Z,79.30
2018-03-29T23:43:25.936Z,79.40
2018-03-29T23:46:00.285Z,79.30
2018-03-29T23:48:34.726Z,79.30
2018-03-29T23:51:09.153Z,79.60
2018-03-29T23:53:44.157Z,79.40
2018-03-29T23:56:18.721Z,79.30
2018-03-29T23:58:53.233Z,79.70
